Surmodics Inc (SRDX) Latest Bloomsberg Price


Mffais Ranking #802 Overall / #7 Industry
Industry: Medical Devices

Number of Companies: 77 (Ranking #1938 Overall/#20 Industry)
Inflow: $ 9,359 (K) (Ranking #2027 Overall/#21 Industry)
Outflow: $ -7,947 (K)
Mffais Flow: $ 1,411 (K) (Ranking #802 Overall/#7 Industry)


Receive a FREE weekly executive review of stocks moving into the top 10, taking the top industy spot or moving up within their industry. Sent directly to your Inbox every Saturday. Sign up today and get last week's review immediately sent to you.

We value and respect your privacy. Please read our Terms and Conditions which states our firm commitment to your privacy. Your email address will not be shared with a third party, nor will it be sold or used for purposes other than subscription for the weekly review.

Owner CPOR Shares Action Qty Chg Invested (K) Total Current Value (K)
Panagora Asset Management Inc 2016-09-30 116,999 Added More 47,948 $ 1,184 $ 2,891
Perkins Capital Management Inc 2016-09-30 43,750 New Holding 43,750 $ 1,081 $ 1,081
Cornerstone Capital Management Holdings Llc 2016-09-30 38,700 New Holding 38,700 $ 956 $ 956
Bogle Investment Management L P De 2016-09-30 41,317 Added More 32,001 $ 790 $ 1,020
Jacobs Levy Equity Management Inc 2016-09-30 29,590 New Holding 29,590 $ 731 $ 731
Algert Global Llc 2016-09-30 103,783 Added More 26,565 $ 656 $ 2,564
Dimensional Fund Advisors Lp 2016-09-30 550,444 Added More 24,084 $ 595 $ 13,601
Eagle Global Advisors Llc 2016-09-30 22,560 New Holding 22,560 $ 557 $ 557
Shell Asset Management Co 2016-09-30 19,517 New Holding 19,517 $ 482 $ 482
Bridgeway Capital Management Inc 2016-09-30 18,950 New Holding 18,950 $ 468 $ 468
Gsa Capital Partners Llp 2016-09-30 46,040 Added More 14,200 $ 350 $ 1,137
Legal General Group Plc 2016-09-30 10,998 Added More 9,043 $ 223 $ 271
Cookson Peirce Co Inc 2016-09-30 8,470 New Holding 8,470 $ 209 $ 209
Teachers Advisors Inc 2016-09-30 30,816 Added More 8,439 $ 208 $ 761
Meristem Llp 2016-09-30 8,196 New Holding 8,196 $ 202 $ 202
Arizona State Retirement System 2016-09-30 6,791 New Holding 6,791 $ 167 $ 167
Condor Capital Management 2016-09-30 6,712 New Holding 6,712 $ 165 $ 165
Thrivent Financial For Lutherans 2016-09-30 6,690 New Holding 6,690 $ 165 $ 165
New York State Common Retirement Fund 2016-09-30 15,300 Added More 3,400 $ 84 $ 378
Northern Trust Corp 2016-09-30 235,033 Added More 1,419 $ 35 $ 5,807
First Quadrant L P Ca 2016-09-30 4,374 Added More 374 $ 9 $ 108
California State Teachers Retirement System 2016-09-30 27,414 Added More 300 $ 7 $ 677
New York State Teachers Retirement System 2016-09-30 47,662 Added More 300 $ 7 $ 1,177
Comerica Bank 2016-09-30 13,183 Added More 202 $ 4 $ 325
Blackrock Inc 2016-09-30 1,636 Added More 155 $ 3 $ 40
Mason Street Advisors Llc 2016-09-30 2,686 Added More 142 $ 3 $ 66
Capstone Asset Management Co 2016-09-30 8,780 Added More 140 $ 3 $ 216
Pinebridge Investments L P 2016-09-30 1,658 Added More 137 $ 3 $ 40
Zurcher Kantonalbank Zurich Cantonalbank 2016-09-30 448 No Change 0 $ 0 $ 11
Us Bancorp De 2016-09-30 9,390 No Change 0 $ 0 $ 232
Teachers Retirement System Of The State Of Kentucky 2016-09-30 4,898 No Change 0 $ 0 $ 121
Nationwide Fund Advisors 2016-09-30 8,279 No Change 0 $ 0 $ 204
Gemmer Asset Management Llc 2016-09-30 136 No Change 0 $ 0 $ 3
Rbf Capital Llc 2016-09-30 10,000 No Change 0 $ 0 $ 247
State Of Tennessee Treasury Department 2016-09-30 10,856 No Change 0 $ 0 $ 268
Spark Investment Management Llc 2016-09-30 41,000 No Change 0 $ 0 $ 1,013
Creative Planning 2016-09-30 500 No Change 0 $ 0 $ 12
South Dakota Investment Council 2016-09-30 75,600 No Change 0 $ 0 $ 1,868
Teton Advisors Inc 2016-09-30 276,792 No Change 0 $ 0 $ 6,839
Trigran Investments Inc 2016-09-30 547,123 No Change 0 $ 0 $ 13,519
Public Sector Pension Investment Board 2016-09-30 8,918 No Change 0 $ 0 $ 220
American International Group Inc 2016-09-30 9,655 Sold Some -2 $ -0 $ 238
Texas Permanent School Fund 2016-09-30 9,938 Sold Some -13 $ -0 $ 245
Pnc Financial Services Group Inc 2016-09-30 0 Sold All -106 $ -2 $ 0
Blackrock Investment Management Llc 2016-09-30 55,000 Sold Some -111 $ -2 $ 1,359
Cadence Capital Management Llc 2016-09-30 30,337 Sold Some -202 $ -4 $ 749
Rice Hall James Associates Llc 2016-09-30 94,246 Sold Some -400 $ -9 $ 2,328
Gabelli Funds Llc 2016-09-30 128,224 Sold Some -402 $ -9 $ 3,168
Murphy Pohlad Asset Management Llc 2016-09-30 72,105 Sold Some -500 $ -12 $ 1,781
Picton Mahoney Asset Management 2016-09-30 2,700 Sold Some -1,000 $ -24 $ 66
Tower Research Capital Llc Trc 2016-09-30 0 Sold All -1,060 $ -26 $ 0
Rhumbline Advisers 2016-09-30 18,668 Sold Some -1,224 $ -30 $ 461
Segall Bryant Hamill Llc 2016-09-30 144,608 Sold Some -1,280 $ -31 $ 3,573
Mairs Power Inc 2016-09-30 10,338 Sold Some -1,362 $ -33 $ 255
Gamco Investors Inc Et Al 2016-09-30 106,048 Sold Some -1,500 $ -37 $ 2,620
Swiss National Bank 2016-09-30 22,800 Sold Some -1,800 $ -44 $ 563
Alambic Investment Management L P 2016-09-30 11,200 Sold Some -1,800 $ -44 $ 276
Teacher Retirement System Of Texas 2016-09-30 0 Sold All -1,810 $ -44 $ 0
Springbok Capital Management Llc 2016-09-30 1,155 Sold Some -1,912 $ -47 $ 28
Fuller Thaler Asset Management Inc 2016-09-30 68,050 Sold Some -2,000 $ -49 $ 1,681
Acrospire Investment Management Llc 2016-09-30 2,212 Sold Some -2,000 $ -49 $ 54
Walleye Trading Llc 2016-09-30 0 Sold All -2,100 $ -51 $ 0
Tfs Capital Llc 2016-09-30 7,221 Sold Some -2,311 $ -57 $ 178
Tudor Investment Corp Et Al 2016-09-30 9,647 Sold Some -2,559 $ -63 $ 238
Disciplined Growth Investors Inc Mn 2016-09-30 176,577 Sold Some -2,700 $ -66 $ 4,363
Strs Ohio 2016-09-30 22,800 Sold Some -4,900 $ -121 $ 563
Diam Co Ltd 2016-09-30 0 Sold All -5,926 $ -146 $ 0
Guggenheim Capital Llc 2016-09-30 47,168 Sold Some -6,576 $ -162 $ 1,165
Menta Capital Llc 2016-09-30 86,648 Sold Some -6,646 $ -164 $ 2,141
Trellus Management Company Llc 2016-09-30 25,555 Sold Some -8,144 $ -201 $ 631
Wesbanco Bank Inc 2016-09-30 0 Sold All -11,049 $ -273 $ 0
Parametric Portfolio Associates Llc 2016-09-30 32,441 Sold Some -11,732 $ -289 $ 801
Secor Capital Advisors Lp 2016-09-30 12,127 Sold Some -11,928 $ -294 $ 299
Systematic Financial Management Lp 2016-09-30 41,875 Sold Some -12,500 $ -308 $ 1,034
Highbridge Capital Management Llc 2016-09-30 0 Sold All -14,381 $ -355 $ 0
Emerald Acquisition Ltd 2016-09-30 171,865 Sold Some -23,192 $ -573 $ 4,246
Royce Associates Lp 2016-09-30 328,092 Sold Some -174,508 $ -4,312 $ 8,107